| time (UTC) | temp C | wind direction | speed KPH | gust KPH | rain 1hr cm | rain 24hr cm | rain mn cm | humidity % | barometer mb |
| 20260906051551 | 21 | 360 | 0.0 | 0.0 | 0.00 | 0.79 | 0.00 | 85 | 1012.1 |
| 20260906050039 | 21 | 360 | 0.0 | 0.0 | 0.00 | 0.79 | 0.00 | 85 | 1012.3 |
| 20260906044540 | 21 | 355 | 0.0 | 0.0 | 0.00 | 0.79 | 0.00 | 85 | 1012.4 |
| 20260906043033 | 21 | 355 | 0.0 | 0.0 | 0.00 | 0.79 | 0.00 | 85 | 1012.2 |
| 20260906041528 | 21 | 355 | 0.0 | 0.0 | 0.00 | 0.79 | 0.00 | 85 | 1012.4 |
| 20260906040033 | 21 | 355 | 0.0 | 0.0 | 0.00 | 0.79 | 0.00 | 85 | 1012.5 |
| 20260906034532 | 21 | 355 | 0.0 | 0.0 | 0.00 | 0.79 | 0.79 | 84 | 1012.7 |
| 20260906033023 | 21 | 355 | 0.0 | 0.0 | 0.00 | 0.79 | 0.79 | 85 | 1012.7 |
| 20260906031529 | 21 | 355 | 0.0 | 0.0 | 0.00 | 0.79 | 0.79 | 84 | 1012.7 |
| 20260906030022 | 22 | 355 | 0.0 | 0.0 | 0.00 | 0.79 | 0.79 | 84 | 1012.7 |
| 20260906024519 | 22 | 355 | 0.0 | 0.0 | 0.00 | 0.79 | 0.79 | 83 | 1012.7 |
| 20260906023017 | 22 | 355 | 0.0 | 0.0 | 0.00 | 0.79 | 0.79 | 82 | 1012.4 |
| 20260906021517 | 21 | 355 | 0.0 | 0.0 | 0.00 | 0.79 | 0.79 | 80 | 1012.2 |
| 20260906020019 | 22 | 355 | 0.0 | 0.0 | 0.00 | 0.79 | 0.79 | 78 | 1012.1 |
| 20260906014544 | 22 | 355 | 0.0 | 0.0 | 0.00 | 0.79 | 0.79 | 77 | 1012.0 |
| 20260906013100 | 22 | 355 | 0.0 | 0.0 | 0.00 | 0.79 | 0.79 | 77 | 1011.8 |
| 20260906011546 | 22 | 355 | 0.0 | 0.0 | 0.00 | 0.79 | 0.79 | 76 | 1012.0 |
| 20260906010041 | 22 | 355 | 0.0 | 0.0 | 0.00 | 0.79 | 0.79 | 74 | 1011.9 |
| 20260906004540 | 23 | 355 | 0.0 | 0.0 | 0.00 | 0.79 | 0.79 | 70 | 1011.7 |
| 20260906003040 | 23 | 355 | 0.0 | 0.0 | 0.00 | 0.79 | 0.79 | 69 | 1011.6 |
| 20260906001537 | 23 | 355 | 0.0 | 0.0 | 0.00 | 0.79 | 0.79 | 69 | 1011.6 |
| 20260906000037 | 24 | 355 | 0.0 | 0.0 | 0.00 | 0.79 | 0.79 | 68 | 1011.3 |
| 20260905234536 | 24 | 355 | 0.0 | 0.0 | 0.00 | 0.79 | 0.79 | 68 | 1011.2 |
| 20260905233042 | 25 | 355 | 0.0 | 0.0 | 0.00 | 0.79 | 0.79 | 68 | 1011.1 |
| 20260905231533 | 26 | 355 | 0.0 | 0.0 | 0.00 | 0.79 | 0.79 | 63 | 1011.0 |
| 20260905230039 | 26 | 355 | 0.0 | 0.0 | 0.00 | 0.79 | 0.79 | 62 | 1011.0 |
| 20260905224532 | 26 | 344 | 0.0 | 0.0 | 0.00 | 0.79 | 0.79 | 62 | 1010.8 |
| 20260905223032 | 25 | 343 | 0.0 | 1.6 | 0.00 | 0.79 | 0.79 | 64 | 1010.8 |
| 20260905221601 | 25 | 332 | 0.0 | 0.0 | 0.00 | 0.79 | 0.79 | 63 | 1010.7 |
| 20260905221502 | 25 | 332 | 0.0 | 0.0 | 0.00 | 0.79 | 0.79 | 63 | 1010.7 |
| 20260905220110 | 25 | 332 | 0.0 | 1.6 | 0.00 | 0.79 | 0.79 | 63 | 1010.9 |
| 20260905214558 | 25 | 328 | 0.0 | 0.0 | 0.00 | 0.79 | 0.79 | 63 | 1011.0 |
| 20260905213158 | 24 | 321 | 0.0 | 0.0 | 0.00 | 0.79 | 0.79 | 66 | 1011.2 |
| 20260905211556 | 23 | 338 | 0.0 | 0.0 | 0.00 | 0.79 | 0.79 | 70 | 1011.4 |
| 20260905210106 | 22 | 330 | 0.0 | 1.6 | 0.03 | 0.79 | 0.79 | 80 | 1011.7 |
| 20260905204534 | 21 | 154 | 0.0 | 0.0 | 0.03 | 0.79 | 0.79 | 80 | 1011.8 |
| 20260905203024 | 21 | 153 | 0.0 | 0.0 | 0.03 | 0.79 | 0.79 | 79 | 1012.0 |
| 20260905201554 | 21 | 154 | 0.0 | 0.0 | 0.08 | 0.79 | 0.79 | 74 | 1012.0 |
| 20260905194522 | 21 | 178 | 0.0 | 0.0 | 0.76 | 0.76 | 0.76 | 68 | 1011.2 |
| 20260905193022 | 21 | 236 | 0.0 | 1.6 | 0.76 | 0.76 | 0.76 | 66 | 1012.0 |
| 20260905191547 | 23 | 211 | 11.3 | 35.4 | 0.66 | 0.66 | 0.66 | 57 | 1012.0 |
| 20260905190046 | 28 | 310 | 30.6 | 67.6 | 0.15 | 0.15 | 0.15 | 45 | 1013.0 |
| 20260905184545 | 34 | 312 | 0.0 | 0.0 | 0.00 | 0.00 | 0.00 | 36 | 1011.1 |
| 20260905183040 | 35 | 274 | 0.0 | 3.2 | 0.00 | 0.00 | 0.00 | 36 | 1011.1 |
| 20260905181538 | 35 | 333 | 0.0 | 1.6 | 0.00 | 0.00 | 0.00 | 38 | 1011.5 |
| 20260905180033 | 34 | 180 | 0.0 | 3.2 | 0.00 | 0.00 | 0.00 | 38 | 1011.5 |
| 20260905174605 | 34 | 188 | 0.0 | 0.0 | 0.00 | 0.00 | 0.00 | 40 | 1011.9 |
| 20260905173059 | 34 | 151 | 0.0 | 9.7 | 0.00 | 0.00 | 0.00 | 41 | 1012.2 |
| 20260905171624 | 33 | 309 | 0.0 | 6.4 | 0.00 | 0.00 | 0.00 | 38 | 1012.5 |
| 20260905100043 | 23 | 180 | 0.0 | 0.0 | 0.00 | 0.00 | 0.00 | 70 | 1012.2 |
| 20260905094628 | 23 | 180 | 0.0 | 0.0 | 0.00 | 0.00 | 0.00 | 70 | 1012.3 |
| 20260905093038 | 23 | 180 | 0.0 | 0.0 | 0.00 | 0.00 | 0.00 | 70 | 1012.3 |
| 20260905091537 | 23 | 180 | 0.0 | 0.0 | 0.00 | 0.00 | 0.00 | 70 | 1012.3 |
| 20260905090035 | 23 | 180 | 0.0 | 0.0 | 0.00 | 0.00 | 0.00 | 70 | 1012.3 |
| 20260905084539 | 23 | 180 | 0.0 | 0.0 | 0.00 | 0.00 | 0.00 | 70 | 1012.5 |
| 20260905083032 | 23 | 180 | 0.0 | 0.0 | 0.00 | 0.00 | 0.00 | 70 | 1012.6 |
| 20260905081528 | 23 | 180 | 0.0 | 0.0 | 0.00 | 0.00 | 0.00 | 70 | 1012.7 |
| 20260905080026 | 23 | 180 | 0.0 | 0.0 | 0.00 | 0.00 | 0.00 | 69 | 1012.9 |
| 20260905074524 | 23 | 180 | 0.0 | 0.0 | 0.00 | 0.00 | 0.00 | 69 | 1013.0 |
| 20260905073022 | 23 | 180 | 0.0 | 0.0 | 0.00 | 0.00 | 0.00 | 68 | 1013.0 |
| 20260905071519 | 23 | 180 | 0.0 | 0.0 | 0.00 | 0.00 | 0.00 | 68 | 1013.2 |
| 20260905070016 | 24 | 180 | 0.0 | 0.0 | 0.00 | 0.00 | 0.00 | 67 | 1013.4 |
| 20260905064515 | 24 | 180 | 0.0 | 0.0 | 0.00 | 0.00 | 0.00 | 67 | 1013.7 |
| 20260905063012 | 25 | 180 | 0.0 | 0.0 | 0.00 | 0.00 | 0.00 | 67 | 1013.8 |
| 20260905061509 | 25 | 180 | 0.0 | 0.0 | 0.00 | 0.00 | 0.00 | 66 | 1014.0 |
| 20260905060009 | 25 | 180 | 0.0 | 0.0 | 0.00 | 0.00 | 0.00 | 66 | 1014.1 |
| 20260905054503 | 25 | 180 | 0.0 | 0.0 | 0.00 | 0.00 | 0.00 | 65 | 1014.3 |
| 20260905053001 | 26 | 180 | 0.0 | 0.0 | 0.00 | 0.00 | 0.00 | 64 | 1014.2 |